createdAt,value
2019-03-03T00:00:34.828Z,6.41
2019-03-03T00:01:34.843Z,6.41
2019-03-03T00:02:34.826Z,6.36
2019-03-03T00:03:34.842Z,6.35
2019-03-03T00:04:34.839Z,6.36
2019-03-03T00:05:34.831Z,6.37
2019-03-03T00:06:34.808Z,6.35
2019-03-03T00:07:34.820Z,6.32
2019-03-03T00:08:34.810Z,6.34
2019-03-03T00:09:34.806Z,6.35
2019-03-03T00:10:34.791Z,6.35
2019-03-03T00:11:34.814Z,6.37
2019-03-03T00:12:34.807Z,6.36
2019-03-03T00:13:34.836Z,6.37
2019-03-03T00:14:34.813Z,6.33
2019-03-03T00:15:34.781Z,6.33
2019-03-03T00:16:34.818Z,6.29
2019-03-03T00:17:34.793Z,6.28
2019-03-03T00:18:34.791Z,6.3
2019-03-03T00:19:34.795Z,6.29
2019-03-03T00:20:34.798Z,6.28
2019-03-03T00:21:34.793Z,6.26
2019-03-03T00:22:34.813Z,6.24
2019-03-03T00:23:34.803Z,6.26
2019-03-03T00:24:34.789Z,6.22
2019-03-03T00:25:34.816Z,6.26
2019-03-03T00:26:35.073Z,6.27
2019-03-03T00:27:34.869Z,6.23
2019-03-03T00:28:34.792Z,6.22
2019-03-03T00:29:34.804Z,6.26
2019-03-03T00:30:34.786Z,6.25
2019-03-03T00:31:34.808Z,6.24
2019-03-03T00:32:34.811Z,6.25
2019-03-03T00:33:34.788Z,6.26
2019-03-03T00:34:34.778Z,6.26
2019-03-03T00:35:34.788Z,6.23
2019-03-03T00:36:34.825Z,6.25
2019-03-03T00:37:34.766Z,6.27
2019-03-03T00:38:34.774Z,6.27
2019-03-03T00:39:34.767Z,6.26
2019-03-03T00:40:34.784Z,6.26
2019-03-03T00:41:34.752Z,6.27
2019-03-03T00:42:34.771Z,6.28
2019-03-03T00:43:34.835Z,6.25
2019-03-03T00:44:34.785Z,6.25
2019-03-03T00:45:34.772Z,6.26
2019-03-03T00:46:34.768Z,6.23
2019-03-03T00:47:34.742Z,6.24
2019-03-03T00:48:34.796Z,6.22
2019-03-03T00:49:34.759Z,6.25
2019-03-03T00:50:34.745Z,6.24
2019-03-03T00:51:34.749Z,6.19
2019-03-03T00:52:34.736Z,6.2
2019-03-03T00:53:34.767Z,6.22
2019-03-03T00:54:34.734Z,6.18
2019-03-03T00:55:34.755Z,6.19
2019-03-03T00:56:34.744Z,6.23
2019-03-03T00:57:34.733Z,6.22
2019-03-03T00:58:34.759Z,6.18
2019-03-03T00:59:34.725Z,6.21
2019-03-03T01:00:34.729Z,6.21
2019-03-03T01:01:34.760Z,6.2
2019-03-03T01:02:34.746Z,6.22
2019-03-03T01:03:34.759Z,6.22
2019-03-03T01:04:34.738Z,6.25
2019-03-03T01:05:34.736Z,6.21
2019-03-03T01:06:34.721Z,6.2
2019-03-03T01:07:34.737Z,6.23
2019-03-03T01:08:34.714Z,6.21
2019-03-03T01:09:35.057Z,6.21
2019-03-03T01:10:34.753Z,6.21
2019-03-03T01:11:34.738Z,6.19
2019-03-03T01:12:34.723Z,6.23
2019-03-03T01:13:34.721Z,6.19
2019-03-03T01:14:34.724Z,6.21
2019-03-03T01:15:34.742Z,6.2
2019-03-03T01:16:34.744Z,6.23
2019-03-03T01:17:34.793Z,6.15
2019-03-03T01:18:34.726Z,6.16
2019-03-03T01:19:34.712Z,6.18
2019-03-03T01:20:34.691Z,6.18
2019-03-03T01:21:34.700Z,6.18
2019-03-03T01:22:34.708Z,6.22
2019-03-03T01:23:34.709Z,6.2
2019-03-03T01:24:34.703Z,6.21
2019-03-03T01:25:34.691Z,6.15
2019-03-03T01:26:34.698Z,6.21
2019-03-03T01:27:34.692Z,6.18
2019-03-03T01:28:34.719Z,6.15
2019-03-03T01:29:34.731Z,6.15
2019-03-03T01:30:34.707Z,6.15
2019-03-03T01:31:34.829Z,6.08
2019-03-03T01:32:34.704Z,6.12
2019-03-03T01:33:34.728Z,6.13
2019-03-03T01:34:34.705Z,6.12
2019-03-03T01:35:34.730Z,6.12
2019-03-03T01:36:34.691Z,6.11
2019-03-03T01:37:34.685Z,6.07
2019-03-03T01:38:34.691Z,6.12
2019-03-03T01:39:34.691Z,6.09
2019-03-03T01:40:34.682Z,6.09
2019-03-03T01:41:34.669Z,6.11
2019-03-03T01:42:34.675Z,6.08
2019-03-03T01:43:34.683Z,6.11
2019-03-03T01:44:34.673Z,6.08
2019-03-03T01:45:34.666Z,6.07
2019-03-03T01:46:34.704Z,6.1
2019-03-03T01:47:34.663Z,6.12
2019-03-03T01:48:34.668Z,6.08
2019-03-03T01:49:34.654Z,6.08
2019-03-03T01:50:34.670Z,6.13
2019-03-03T01:51:34.668Z,6.12
2019-03-03T01:52:34.653Z,6.1
2019-03-03T01:53:34.806Z,6.1
2019-03-03T01:54:34.724Z,6.1
2019-03-03T01:55:34.679Z,6.12
2019-03-03T01:56:34.710Z,6.08
2019-03-03T01:57:34.626Z,6.09
2019-03-03T01:58:34.652Z,6.11
2019-03-03T01:59:34.675Z,6.05
2019-03-03T02:00:34.651Z,6.07
2019-03-03T02:01:34.675Z,6.07
2019-03-03T02:02:34.686Z,6.05
2019-03-03T02:03:34.621Z,6.1
2019-03-03T02:04:34.647Z,6.07
2019-03-03T02:05:34.632Z,6.09
2019-03-03T02:06:34.643Z,6.09
2019-03-03T02:07:34.633Z,6.09
2019-03-03T02:08:34.634Z,6.03
2019-03-03T02:09:34.641Z,6.03
2019-03-03T02:10:34.621Z,6.03
2019-03-03T02:11:34.627Z,6.01
2019-03-03T02:12:34.673Z,6.03
2019-03-03T02:13:34.669Z,6.06
2019-03-03T02:14:34.659Z,6.02
2019-03-03T02:15:34.653Z,5.99
2019-03-03T02:16:34.633Z,6.03
2019-03-03T02:17:34.640Z,6.02
2019-03-03T02:18:34.620Z,6.06
2019-03-03T02:19:34.624Z,6.07
2019-03-03T02:20:34.640Z,6.07
2019-03-03T02:21:34.604Z,6.01
2019-03-03T02:22:34.629Z,6.04
2019-03-03T02:23:34.800Z,6.03
2019-03-03T02:24:34.755Z,6.01
2019-03-03T02:25:34.649Z,6.02
2019-03-03T02:26:34.647Z,6.08
2019-03-03T02:27:34.602Z,6.03
2019-03-03T02:28:34.605Z,6.01
2019-03-03T02:29:34.619Z,6
2019-03-03T02:30:34.639Z,5.97
2019-03-03T02:31:34.604Z,6.01
2019-03-03T02:32:34.647Z,6
2019-03-03T02:33:34.611Z,6
2019-03-03T02:34:34.634Z,5.97
2019-03-03T02:35:34.603Z,5.93
2019-03-03T02:36:34.662Z,5.98
2019-03-03T02:37:34.638Z,5.94
2019-03-03T02:38:34.576Z,5.96
2019-03-03T02:39:34.630Z,6
2019-03-03T02:40:34.626Z,5.98
2019-03-03T02:41:34.600Z,5.99
2019-03-03T02:42:34.593Z,5.95
2019-03-03T02:43:34.579Z,5.96
2019-03-03T02:44:34.605Z,5.97
2019-03-03T02:45:34.569Z,5.97
2019-03-03T02:46:35.837Z,5.99
2019-03-03T02:47:34.598Z,5.9
2019-03-03T02:48:34.594Z,5.93
2019-03-03T02:49:34.636Z,5.95
2019-03-03T02:50:34.615Z,5.92
2019-03-03T02:51:34.591Z,5.94
2019-03-03T02:52:34.605Z,5.86
2019-03-03T02:53:34.649Z,5.9
2019-03-03T02:54:34.609Z,5.89
2019-03-03T02:55:34.590Z,5.94
2019-03-03T02:56:34.596Z,5.95
2019-03-03T02:57:34.576Z,5.92
2019-03-03T02:58:34.578Z,5.94
2019-03-03T02:59:34.590Z,5.92
2019-03-03T03:00:34.885Z,5.87
2019-03-03T03:01:34.591Z,5.9
2019-03-03T03:02:34.562Z,5.9
2019-03-03T03:03:34.585Z,5.9
2019-03-03T03:04:34.567Z,5.87
2019-03-03T03:05:34.584Z,5.9
2019-03-03T03:06:34.620Z,5.9
2019-03-03T03:07:34.865Z,5.88
2019-03-03T03:08:34.647Z,5.88
2019-03-03T03:09:34.590Z,5.87
2019-03-03T03:10:34.567Z,5.86
2019-03-03T03:11:34.557Z,5.82
2019-03-03T03:12:34.575Z,5.81
2019-03-03T03:13:34.581Z,5.83
2019-03-03T03:14:34.557Z,5.83
2019-03-03T03:15:34.569Z,5.79
2019-03-03T03:16:34.594Z,5.8
2019-03-03T03:17:34.559Z,5.78
2019-03-03T03:18:34.525Z,5.74
2019-03-03T03:19:34.575Z,5.72
2019-03-03T03:20:34.576Z,5.77
2019-03-03T03:21:34.525Z,5.74
2019-03-03T03:22:34.553Z,5.75
2019-03-03T03:23:34.651Z,5.75
2019-03-03T03:24:34.537Z,5.72
2019-03-03T03:25:34.550Z,5.72
2019-03-03T03:26:34.590Z,5.72
2019-03-03T03:27:34.561Z,5.73
2019-03-03T03:28:34.540Z,5.71
2019-03-03T03:29:34.998Z,5.67
2019-03-03T03:30:34.605Z,5.69
2019-03-03T03:31:34.567Z,5.63
2019-03-03T03:32:34.566Z,5.62
2019-03-03T03:33:34.599Z,5.65
2019-03-03T03:34:34.600Z,5.64
2019-03-03T03:35:34.526Z,5.64
2019-03-03T03:36:37.284Z,5.62
2019-03-03T03:37:34.559Z,5.63
2019-03-03T03:38:34.517Z,5.6
2019-03-03T03:39:34.541Z,5.62
2019-03-03T03:40:34.525Z,5.58
2019-03-03T03:41:34.532Z,5.58
2019-03-03T03:42:34.523Z,5.58
2019-03-03T03:43:34.562Z,5.6
2019-03-03T03:44:34.518Z,5.64
2019-03-03T03:45:34.545Z,5.63
2019-03-03T03:46:34.509Z,5.59
2019-03-03T03:47:34.530Z,5.59
2019-03-03T03:48:34.505Z,5.59
2019-03-03T03:49:34.505Z,5.6
2019-03-03T03:50:34.534Z,5.59
2019-03-03T03:51:34.582Z,5.59
2019-03-03T03:52:34.563Z,5.62
2019-03-03T03:53:34.577Z,5.6
2019-03-03T03:54:34.536Z,5.61
2019-03-03T03:55:34.515Z,5.61
2019-03-03T03:56:34.521Z,5.6
2019-03-03T03:57:34.482Z,5.63
2019-03-03T03:58:34.513Z,5.61
2019-03-03T03:59:34.537Z,5.61
2019-03-03T04:00:34.515Z,5.61
2019-03-03T04:01:34.612Z,5.62
2019-03-03T04:02:34.541Z,5.63
2019-03-03T04:03:34.496Z,5.61
2019-03-03T04:04:34.498Z,5.64
2019-03-03T04:05:34.505Z,5.63
2019-03-03T04:06:34.510Z,5.63
2019-03-03T04:07:34.483Z,5.63
2019-03-03T04:08:34.499Z,5.65
2019-03-03T04:09:34.500Z,5.63
2019-03-03T04:10:34.461Z,5.64
2019-03-03T04:11:34.467Z,5.66
2019-03-03T04:12:34.505Z,5.64
2019-03-03T04:13:34.622Z,5.66
2019-03-03T04:14:35.104Z,5.64
2019-03-03T04:15:34.454Z,5.66
2019-03-03T04:16:34.494Z,5.67
2019-03-03T04:17:34.474Z,5.67
2019-03-03T04:18:34.500Z,5.69
2019-03-03T04:19:34.504Z,5.69
2019-03-03T04:20:34.471Z,5.71
2019-03-03T04:21:34.468Z,5.73
2019-03-03T04:22:34.474Z,5.73
2019-03-03T04:23:34.454Z,5.69
2019-03-03T04:24:34.486Z,5.71
2019-03-03T04:25:34.457Z,5.73
2019-03-03T04:26:34.461Z,5.74
2019-03-03T04:27:34.463Z,5.75
2019-03-03T04:28:34.488Z,5.76
2019-03-03T04:29:34.460Z,5.75
2019-03-03T04:30:34.461Z,5.76
2019-03-03T04:31:34.480Z,5.77
2019-03-03T04:32:34.440Z,5.78
2019-03-03T04:33:34.419Z,5.77
2019-03-03T04:34:34.428Z,5.79
2019-03-03T04:35:34.436Z,5.79
2019-03-03T04:36:34.450Z,5.81
2019-03-03T04:37:34.446Z,5.82
2019-03-03T04:38:34.423Z,5.81
2019-03-03T04:39:34.431Z,5.83
2019-03-03T04:40:34.425Z,5.84
2019-03-03T04:41:34.422Z,5.83
2019-03-03T04:42:34.433Z,5.83
2019-03-03T04:43:34.432Z,5.82
2019-03-03T04:44:34.438Z,5.81
2019-03-03T04:45:34.427Z,5.85
2019-03-03T04:46:34.460Z,5.86
2019-03-03T04:47:34.428Z,5.85
2019-03-03T04:48:34.470Z,5.86
2019-03-03T04:49:34.492Z,5.83
2019-03-03T04:50:34.433Z,5.82
2019-03-03T04:51:34.434Z,5.87
2019-03-03T04:52:34.420Z,5.9
2019-03-03T04:53:34.455Z,5.85
2019-03-03T04:54:34.418Z,5.85
2019-03-03T04:55:34.431Z,5.87
2019-03-03T04:56:34.397Z,5.86
2019-03-03T04:57:34.438Z,5.86
2019-03-03T04:58:34.544Z,5.89
2019-03-03T04:59:34.498Z,5.89
2019-03-03T05:00:34.424Z,5.83
2019-03-03T05:01:34.434Z,5.81
2019-03-03T05:02:34.417Z,5.89
2019-03-03T05:03:34.419Z,5.87
2019-03-03T05:04:34.430Z,5.87
2019-03-03T05:05:34.400Z,5.91
2019-03-03T05:06:34.443Z,5.87
2019-03-03T05:07:34.462Z,5.85
2019-03-03T05:08:34.446Z,5.87
2019-03-03T05:09:34.406Z,5.86
2019-03-03T05:10:34.413Z,5.87
2019-03-03T05:11:34.393Z,5.92
2019-03-03T05:12:34.404Z,5.9
2019-03-03T05:13:34.489Z,5.89
2019-03-03T05:14:34.406Z,5.89
2019-03-03T05:15:34.405Z,5.9
2019-03-03T05:16:34.432Z,5.87
2019-03-03T05:17:34.395Z,5.93
2019-03-03T05:18:34.389Z,5.93
2019-03-03T05:19:34.373Z,5.9
2019-03-03T05:20:34.388Z,5.89
2019-03-03T05:21:34.700Z,5.92
2019-03-03T05:22:34.363Z,5.89
2019-03-03T05:23:34.380Z,5.89
2019-03-03T05:24:34.879Z,5.88
2019-03-03T05:25:34.372Z,5.84
2019-03-03T05:26:34.386Z,5.88
2019-03-03T05:27:34.388Z,5.82
2019-03-03T05:28:34.390Z,5.89
2019-03-03T05:29:34.389Z,5.88
2019-03-03T05:30:34.362Z,5.87
2019-03-03T05:31:34.358Z,5.9
2019-03-03T05:32:34.370Z,5.84
2019-03-03T05:33:34.356Z,5.8
2019-03-03T05:34:34.363Z,5.82
2019-03-03T05:35:34.381Z,5.9
2019-03-03T05:36:34.371Z,5.85
2019-03-03T05:37:34.380Z,5.85
2019-03-03T05:38:34.427Z,5.88
2019-03-03T05:39:34.373Z,5.92
2019-03-03T05:40:34.377Z,5.91
2019-03-03T05:41:34.355Z,5.88
2019-03-03T05:42:34.356Z,5.86
2019-03-03T05:43:34.551Z,5.89
2019-03-03T05:44:34.346Z,5.83
2019-03-03T05:45:34.326Z,5.85
2019-03-03T05:46:34.332Z,5.88
2019-03-03T05:47:34.412Z,5.87
2019-03-03T05:48:34.371Z,5.86
2019-03-03T05:49:34.317Z,5.84
2019-03-03T05:50:34.334Z,5.85
2019-03-03T05:51:34.327Z,5.89
2019-03-03T05:52:34.360Z,5.88
2019-03-03T05:53:34.334Z,5.89
2019-03-03T05:54:34.325Z,5.89
2019-03-03T05:55:34.339Z,5.88
2019-03-03T05:56:34.315Z,5.89
2019-03-03T05:57:34.340Z,5.86
2019-03-03T05:58:34.310Z,5.89
2019-03-03T05:59:34.322Z,5.88
2019-03-03T06:00:34.384Z,5.89
2019-03-03T06:01:34.540Z,5.89
2019-03-03T06:02:34.322Z,5.86
2019-03-03T06:03:34.318Z,5.9
2019-03-03T06:04:34.344Z,5.85
2019-03-03T06:05:34.393Z,5.88
2019-03-03T06:06:34.387Z,5.92
2019-03-03T06:07:34.308Z,5.89
2019-03-03T06:08:34.311Z,5.86
2019-03-03T06:09:34.304Z,5.86
2019-03-03T06:10:34.295Z,5.84
2019-03-03T06:11:34.306Z,5.82
2019-03-03T06:12:34.307Z,5.81
2019-03-03T06:13:34.314Z,5.8
2019-03-03T06:14:34.319Z,5.77
2019-03-03T06:15:34.350Z,5.77
2019-03-03T06:16:34.305Z,5.74
2019-03-03T06:17:34.287Z,5.81
2019-03-03T06:18:34.324Z,5.82
2019-03-03T06:19:34.313Z,5.76
2019-03-03T06:20:34.286Z,5.77
2019-03-03T06:21:34.292Z,5.77
2019-03-03T06:22:34.294Z,5.74
2019-03-03T06:23:34.289Z,5.77
2019-03-03T06:24:34.295Z,5.72
2019-03-03T06:25:34.294Z,5.7
2019-03-03T06:26:34.289Z,5.72
2019-03-03T06:27:34.342Z,5.73
2019-03-03T06:28:34.289Z,5.7
2019-03-03T06:29:34.296Z,5.72
2019-03-03T06:30:34.301Z,5.69
2019-03-03T06:31:34.267Z,5.7
2019-03-03T06:32:34.280Z,5.66
2019-03-03T06:33:34.336Z,5.66
2019-03-03T06:34:34.271Z,5.68
2019-03-03T06:35:34.278Z,5.66
2019-03-03T06:36:34.281Z,5.64
2019-03-03T06:37:34.269Z,5.69
2019-03-03T06:38:34.277Z,5.64
2019-03-03T06:39:34.335Z,5.66
2019-03-03T06:40:34.269Z,5.54
2019-03-03T06:41:34.257Z,5.51
2019-03-03T06:42:34.296Z,5.55
2019-03-03T06:43:34.260Z,5.54
2019-03-03T06:44:34.279Z,5.59
2019-03-03T06:45:34.263Z,5.55
2019-03-03T06:46:34.261Z,5.53
2019-03-03T06:47:34.253Z,5.55
2019-03-03T06:48:34.254Z,5.57
2019-03-03T06:49:34.382Z,5.55
2019-03-03T06:50:34.278Z,5.57
2019-03-03T06:51:34.344Z,5.54
2019-03-03T06:52:34.269Z,5.55
2019-03-03T06:53:34.247Z,5.5
2019-03-03T06:54:34.265Z,5.46
2019-03-03T06:55:34.258Z,5.5
2019-03-03T06:56:34.263Z,5.49
2019-03-03T06:57:34.258Z,5.52
2019-03-03T06:58:34.232Z,5.51
2019-03-03T06:59:34.278Z,5.5
2019-03-03T07:00:34.229Z,5.51
2019-03-03T07:01:34.251Z,5.58
2019-03-03T07:02:34.225Z,5.56
2019-03-03T07:03:34.246Z,5.56
2019-03-03T07:04:34.227Z,5.55
2019-03-03T07:05:34.228Z,5.56
2019-03-03T07:06:34.229Z,5.52
2019-03-03T07:07:34.235Z,5.52
2019-03-03T07:08:34.260Z,5.52
2019-03-03T07:09:34.251Z,5.51
2019-03-03T07:10:34.248Z,5.52
2019-03-03T07:11:34.304Z,5.53
2019-03-03T07:12:34.219Z,5.55
2019-03-03T07:13:34.253Z,5.58
2019-03-03T07:14:34.217Z,5.59
2019-03-03T07:15:34.229Z,5.52
2019-03-03T07:16:34.214Z,5.55
2019-03-03T07:17:34.227Z,5.56
2019-03-03T07:18:34.217Z,5.58
2019-03-03T07:19:34.210Z,5.62
2019-03-03T07:20:34.219Z,5.63
2019-03-03T07:21:34.221Z,5.61
2019-03-03T07:22:34.203Z,5.65
2019-03-03T07:23:34.215Z,5.63
2019-03-03T07:24:34.203Z,5.63
2019-03-03T07:25:34.195Z,5.65
2019-03-03T07:26:34.224Z,5.64
2019-03-03T07:27:34.239Z,5.64
2019-03-03T07:28:34.199Z,5.54
2019-03-03T07:29:34.199Z,5.62
2019-03-03T07:30:34.199Z,5.6
2019-03-03T07:31:34.238Z,5.64
2019-03-03T07:32:34.264Z,5.66
2019-03-03T07:33:34.442Z,5.65
2019-03-03T07:34:34.209Z,5.64
2019-03-03T07:35:34.209Z,5.66
2019-03-03T07:36:34.261Z,5.68
2019-03-03T07:37:34.178Z,5.69
2019-03-03T07:38:34.191Z,5.72
2019-03-03T07:39:34.200Z,5.71
2019-03-03T07:40:34.181Z,5.76
2019-03-03T07:41:34.219Z,5.74
2019-03-03T07:42:34.186Z,5.76
2019-03-03T07:43:34.171Z,5.75
2019-03-03T07:44:34.162Z,5.76
2019-03-03T07:45:34.181Z,5.78
2019-03-03T07:46:34.175Z,5.78
2019-03-03T07:47:34.163Z,5.77
2019-03-03T07:48:34.179Z,5.75
2019-03-03T07:49:34.177Z,5.73
2019-03-03T07:50:34.186Z,5.74
2019-03-03T07:51:34.193Z,5.73
2019-03-03T07:52:34.185Z,5.73
2019-03-03T07:53:34.171Z,5.68
2019-03-03T07:54:34.178Z,5.67
2019-03-03T07:55:34.245Z,5.69
2019-03-03T07:56:34.170Z,5.74
2019-03-03T07:57:34.188Z,5.66
2019-03-03T07:58:34.173Z,5.69
2019-03-03T07:59:34.154Z,5.69
2019-03-03T08:00:34.182Z,5.67
2019-03-03T08:01:34.180Z,5.61
2019-03-03T08:02:34.189Z,5.56
2019-03-03T08:03:34.161Z,5.54
2019-03-03T08:04:34.165Z,5.51
2019-03-03T08:05:34.176Z,5.53
2019-03-03T08:06:34.201Z,5.54
2019-03-03T08:07:34.151Z,5.56
2019-03-03T08:08:34.150Z,5.54
2019-03-03T08:09:34.140Z,5.49
2019-03-03T08:10:34.154Z,5.5
2019-03-03T08:11:34.134Z,5.46
2019-03-03T08:12:34.148Z,5.46
2019-03-03T08:13:34.205Z,5.51
2019-03-03T08:14:34.141Z,5.55
2019-03-03T08:15:34.185Z,5.55
2019-03-03T08:16:34.141Z,5.6
2019-03-03T08:17:34.183Z,5.53
2019-03-03T08:18:34.130Z,5.59
2019-03-03T08:19:34.141Z,5.6
2019-03-03T08:20:34.155Z,5.61
2019-03-03T08:21:34.115Z,5.61
2019-03-03T08:22:34.262Z,5.57
2019-03-03T08:23:34.145Z,5.52
2019-03-03T08:24:34.112Z,5.52
2019-03-03T08:25:34.144Z,5.59
2019-03-03T08:26:34.131Z,5.63
2019-03-03T08:27:34.150Z,5.62
2019-03-03T08:28:34.164Z,5.66
2019-03-03T08:29:34.160Z,5.69
2019-03-03T08:30:34.135Z,5.68
2019-03-03T08:31:34.128Z,5.68
2019-03-03T08:32:34.186Z,5.69
2019-03-03T08:33:34.166Z,5.67
2019-03-03T08:34:34.130Z,5.73
2019-03-03T08:35:34.123Z,5.72
2019-03-03T08:36:34.169Z,5.76
2019-03-03T08:37:34.121Z,5.8
2019-03-03T08:38:34.165Z,5.68
2019-03-03T08:39:34.373Z,5.71
2019-03-03T08:40:34.110Z,5.64
2019-03-03T08:41:34.319Z,5.68
2019-03-03T08:42:34.114Z,5.7
2019-03-03T08:43:34.138Z,5.73
2019-03-03T08:44:34.144Z,5.75
2019-03-03T08:45:34.098Z,5.68
2019-03-03T08:46:34.311Z,5.68
2019-03-03T08:47:34.158Z,5.7
2019-03-03T08:48:34.097Z,5.66
2019-03-03T08:49:34.106Z,5.65
2019-03-03T08:50:34.091Z,5.66
2019-03-03T08:51:34.106Z,5.64
2019-03-03T08:52:34.093Z,5.69
2019-03-03T08:53:34.158Z,5.68
2019-03-03T08:54:34.136Z,5.69
2019-03-03T08:55:34.075Z,5.7
2019-03-03T08:56:34.078Z,5.72
2019-03-03T08:57:34.091Z,5.77
2019-03-03T08:58:34.100Z,5.72
2019-03-03T08:59:34.078Z,5.77
2019-03-03T09:00:34.082Z,5.8
2019-03-03T09:01:34.107Z,5.77
2019-03-03T09:02:34.095Z,5.67
2019-03-03T09:03:34.043Z,5.68
2019-03-03T09:04:34.095Z,5.7
2019-03-03T09:05:34.059Z,5.7
2019-03-03T09:06:34.069Z,5.73
2019-03-03T09:07:34.086Z,5.77
2019-03-03T09:08:34.079Z,5.78
2019-03-03T09:09:34.058Z,5.78
2019-03-03T09:10:34.062Z,5.75
2019-03-03T09:11:34.069Z,5.74
2019-03-03T09:12:34.310Z,5.76
2019-03-03T09:13:34.077Z,5.78
2019-03-03T09:14:34.102Z,5.77
2019-03-03T09:15:34.059Z,5.74
2019-03-03T09:16:34.110Z,5.77
2019-03-03T09:17:34.104Z,5.84
2019-03-03T09:18:34.146Z,5.85
2019-03-03T09:19:34.049Z,5.84
2019-03-03T09:20:34.034Z,5.73
2019-03-03T09:21:34.127Z,5.79
2019-03-03T09:22:34.044Z,5.83
2019-03-03T09:23:34.060Z,5.84
2019-03-03T09:24:34.030Z,5.85
2019-03-03T09:25:34.054Z,5.84
2019-03-03T09:26:34.051Z,5.84
2019-03-03T09:27:34.043Z,5.86
2019-03-03T09:28:34.292Z,5.86
2019-03-03T09:29:34.300Z,5.83
2019-03-03T09:30:34.034Z,5.83
2019-03-03T09:31:34.050Z,5.81
2019-03-03T09:32:34.064Z,5.81
2019-03-03T09:33:34.017Z,5.76
2019-03-03T09:34:34.030Z,5.75
2019-03-03T09:35:34.024Z,5.74
2019-03-03T09:36:34.026Z,5.78
2019-03-03T09:37:34.038Z,5.77
2019-03-03T09:38:34.030Z,5.75
2019-03-03T09:39:34.047Z,5.74
2019-03-03T09:40:34.090Z,5.75
2019-03-03T09:41:34.036Z,5.8
2019-03-03T09:42:34.034Z,5.83
2019-03-03T09:43:34.045Z,5.89
2019-03-03T09:44:34.020Z,5.89
2019-03-03T09:45:34.032Z,5.93
2019-03-03T09:46:34.033Z,5.89
2019-03-03T09:47:34.009Z,5.85
2019-03-03T09:48:33.988Z,5.73
2019-03-03T09:49:34.068Z,5.79
2019-03-03T09:50:34.040Z,5.83
2019-03-03T09:51:33.993Z,5.84
2019-03-03T09:52:33.995Z,5.85
2019-03-03T09:53:34.013Z,5.87
2019-03-03T09:54:34.007Z,5.81
2019-03-03T09:55:34.008Z,5.87
2019-03-03T09:56:34.042Z,5.88
2019-03-03T09:57:33.969Z,5.89
2019-03-03T09:58:33.976Z,5.9
2019-03-03T09:59:33.994Z,5.91
2019-03-03T10:00:34.014Z,5.86
2019-03-03T10:01:33.998Z,5.82
2019-03-03T10:02:34.000Z,5.81
2019-03-03T10:03:33.976Z,5.82
2019-03-03T10:04:33.968Z,5.85
2019-03-03T10:05:34.013Z,5.89
2019-03-03T10:06:34.240Z,5.88
2019-03-03T10:07:34.153Z,5.91
2019-03-03T10:08:33.964Z,5.84
2019-03-03T10:09:33.986Z,5.8
2019-03-03T10:10:34.020Z,5.81
2019-03-03T10:11:33.960Z,5.88
2019-03-03T10:12:34.010Z,5.91
2019-03-03T10:13:33.966Z,5.8
2019-03-03T10:14:33.986Z,5.81
2019-03-03T10:15:33.986Z,5.85
2019-03-03T10:16:34.063Z,5.8
2019-03-03T10:17:33.982Z,5.76
2019-03-03T10:18:33.994Z,5.81
2019-03-03T10:19:33.995Z,5.83
2019-03-03T10:20:33.975Z,5.84
2019-03-03T10:21:33.954Z,5.9
2019-03-03T10:22:33.984Z,5.87
2019-03-03T10:23:33.974Z,5.89
2019-03-03T10:24:33.976Z,5.81
2019-03-03T10:25:33.958Z,5.89
2019-03-03T10:26:35.296Z,5.86
2019-03-03T10:27:33.991Z,5.88
2019-03-03T10:28:33.984Z,5.82
2019-03-03T10:29:34.327Z,5.88
2019-03-03T10:30:33.991Z,5.9
2019-03-03T10:31:34.002Z,5.94
2019-03-03T10:32:33.973Z,5.96
2019-03-03T10:33:33.963Z,6
2019-03-03T10:34:33.985Z,5.97
2019-03-03T10:35:33.982Z,5.99
2019-03-03T10:36:33.945Z,6.01
2019-03-03T10:37:33.983Z,5.97
2019-03-03T10:38:36.598Z,5.91
2019-03-03T10:39:33.930Z,5.88
2019-03-03T10:40:33.954Z,5.9
2019-03-03T10:41:34.003Z,5.91
2019-03-03T10:42:33.940Z,5.97
2019-03-03T10:43:33.938Z,5.99
2019-03-03T10:44:34.002Z,5.95
2019-03-03T10:45:33.973Z,5.89
2019-03-03T10:46:33.942Z,5.91
2019-03-03T10:47:33.941Z,5.9
2019-03-03T10:48:33.923Z,5.88
2019-03-03T10:49:33.923Z,5.9
2019-03-03T10:50:33.981Z,5.87
2019-03-03T10:51:33.930Z,5.91
2019-03-03T10:52:33.989Z,5.88
2019-03-03T10:53:33.925Z,5.85
2019-03-03T10:54:33.919Z,5.92
2019-03-03T10:55:33.944Z,5.9
2019-03-03T10:56:33.928Z,5.96
2019-03-03T10:57:34.026Z,5.93
2019-03-03T10:58:33.914Z,5.84
2019-03-03T10:59:34.023Z,5.89
2019-03-03T11:00:33.910Z,5.91
2019-03-03T11:01:33.961Z,5.91
2019-03-03T11:02:33.922Z,5.9
2019-03-03T11:03:33.917Z,5.88
2019-03-03T11:04:33.931Z,5.8
2019-03-03T11:05:33.914Z,5.8
2019-03-03T11:06:33.918Z,5.82
2019-03-03T11:07:33.899Z,5.86
2019-03-03T11:08:33.917Z,5.91
2019-03-03T11:09:33.910Z,5.89
2019-03-03T11:10:33.921Z,5.84
2019-03-03T11:11:33.923Z,5.84
2019-03-03T11:12:34.012Z,5.84
2019-03-03T11:13:33.938Z,5.88
2019-03-03T11:14:33.901Z,5.9
2019-03-03T11:15:33.909Z,5.9
2019-03-03T11:16:33.899Z,5.92
2019-03-03T11:17:33.906Z,5.89
2019-03-03T11:18:33.898Z,5.9
2019-03-03T11:19:33.946Z,5.89
2019-03-03T11:20:33.914Z,5.86
2019-03-03T11:21:33.929Z,5.86
2019-03-03T11:22:33.979Z,5.87
2019-03-03T11:23:33.954Z,5.84
2019-03-03T11:24:33.899Z,5.87
2019-03-03T11:25:33.869Z,5.92
2019-03-03T11:26:33.870Z,5.95
2019-03-03T11:27:33.921Z,5.92
2019-03-03T11:28:33.899Z,5.96
2019-03-03T11:29:33.895Z,5.95
2019-03-03T11:30:33.894Z,5.91
2019-03-03T11:31:33.898Z,5.87
2019-03-03T11:32:33.894Z,5.87
2019-03-03T11:33:33.879Z,5.93
2019-03-03T11:34:33.926Z,5.93
2019-03-03T11:35:33.870Z,5.97
2019-03-03T11:36:33.927Z,5.97
2019-03-03T11:37:33.877Z,5.92
2019-03-03T11:38:33.867Z,5.98
2019-03-03T11:39:33.876Z,5.89
2019-03-03T11:40:33.875Z,5.92
2019-03-03T11:41:33.933Z,5.92
2019-03-03T11:42:33.901Z,5.89
2019-03-03T11:43:33.880Z,5.95
2019-03-03T11:44:33.936Z,5.94
2019-03-03T11:45:33.921Z,5.91
2019-03-03T11:46:33.911Z,5.9
2019-03-03T11:47:33.857Z,5.9
2019-03-03T11:48:33.895Z,5.91
2019-03-03T11:49:33.847Z,5.9
2019-03-03T11:50:33.847Z,5.9
2019-03-03T11:51:33.897Z,5.87
2019-03-03T11:52:33.989Z,5.95
2019-03-03T11:53:33.875Z,5.97
2019-03-03T11:54:33.859Z,5.93
2019-03-03T11:55:33.865Z,5.93
2019-03-03T11:56:33.866Z,5.97
2019-03-03T11:57:33.850Z,5.95
2019-03-03T11:58:33.836Z,5.98
2019-03-03T11:59:33.896Z,5.95
2019-03-03T12:00:33.847Z,5.94
2019-03-03T12:01:33.851Z,5.94
2019-03-03T12:02:33.835Z,5.93
2019-03-03T12:03:33.829Z,5.96
2019-03-03T12:04:33.908Z,5.98
2019-03-03T12:05:33.879Z,6.02
2019-03-03T12:06:33.883Z,5.93
2019-03-03T12:07:33.843Z,5.9
2019-03-03T12:08:33.827Z,5.9
2019-03-03T12:09:33.862Z,5.89
2019-03-03T12:10:34.423Z,5.96
2019-03-03T12:11:33.815Z,5.94
2019-03-03T12:12:33.828Z,5.94
2019-03-03T12:13:33.826Z,5.92
2019-03-03T12:14:33.827Z,5.98
2019-03-03T12:15:33.809Z,5.95
2019-03-03T12:16:33.842Z,5.95
2019-03-03T12:17:35.454Z,5.95
2019-03-03T12:18:34.216Z,6.05
2019-03-03T12:19:33.841Z,6.09
2019-03-03T12:20:33.811Z,6.09
2019-03-03T12:21:33.848Z,6.04
2019-03-03T12:22:33.827Z,6.09
2019-03-03T12:23:33.821Z,6.11
2019-03-03T12:24:33.824Z,6.17
2019-03-03T12:25:33.802Z,6.21
2019-03-03T12:26:33.804Z,6.2
2019-03-03T12:27:33.817Z,6.08
2019-03-03T12:28:33.821Z,6.1
2019-03-03T12:29:33.810Z,6.04
2019-03-03T12:30:33.813Z,6.05
2019-03-03T12:31:33.852Z,6.03
2019-03-03T12:32:33.791Z,6.08
2019-03-03T12:33:33.811Z,6.06
2019-03-03T12:34:33.820Z,6.07
2019-03-03T12:35:33.868Z,6.04
2019-03-03T12:36:33.819Z,6.1
2019-03-03T12:37:33.817Z,6.03
2019-03-03T12:38:33.796Z,6.07
2019-03-03T12:39:33.796Z,6.03
2019-03-03T12:40:33.896Z,6.06
2019-03-03T12:41:33.787Z,6.07
2019-03-03T12:42:33.797Z,6.07
2019-03-03T12:43:33.799Z,6.07
2019-03-03T12:44:33.842Z,6
2019-03-03T12:45:33.794Z,6.04
2019-03-03T12:46:33.790Z,6.05
2019-03-03T12:47:33.847Z,6.07
2019-03-03T12:48:33.805Z,6.09
2019-03-03T12:49:33.792Z,6.06
2019-03-03T12:50:33.765Z,6.07
2019-03-03T12:51:33.852Z,6.06
2019-03-03T12:52:33.853Z,6.12
2019-03-03T12:53:34.949Z,6.13
2019-03-03T12:54:33.823Z,6.12
2019-03-03T12:55:33.787Z,6.11
2019-03-03T12:56:33.810Z,6.13
2019-03-03T12:57:33.803Z,6.14
2019-03-03T12:58:33.781Z,6.08
2019-03-03T12:59:33.806Z,6.03
2019-03-03T13:00:33.785Z,6
2019-03-03T13:01:33.892Z,6
2019-03-03T13:02:33.825Z,5.93
2019-03-03T13:03:33.772Z,5.99
2019-03-03T13:04:33.777Z,5.98
2019-03-03T13:05:33.766Z,5.89
2019-03-03T13:06:33.777Z,5.94
2019-03-03T13:07:33.773Z,5.95
2019-03-03T13:08:33.791Z,5.94
2019-03-03T13:09:33.750Z,5.98
2019-03-03T13:10:33.743Z,5.97
2019-03-03T13:11:33.963Z,5.99
2019-03-03T13:12:33.753Z,5.94
2019-03-03T13:13:33.753Z,5.9
2019-03-03T13:14:33.736Z,5.95
2019-03-03T13:15:33.761Z,5.93
2019-03-03T13:16:33.797Z,5.99
2019-03-03T13:17:33.758Z,6.03
2019-03-03T13:18:33.853Z,6.06
2019-03-03T13:19:33.786Z,6.03
2019-03-03T13:20:33.742Z,5.99
2019-03-03T13:21:33.772Z,5.91